sensor_id;sensor_type;location;lat;lon;timestamp;pressure;altitude;pressure_sealevel;temperature;humidity
55590;BME280;41452;42.780;23.116;2024-01-16T00:01:24;92879.28;;;2.77;100.00
55590;BME280;41452;42.780;23.116;2024-01-16T00:03:49;92879.66;;;2.81;100.00
55590;BME280;41452;42.780;23.116;2024-01-16T00:06:14;92889.56;;;2.84;100.00
55590;BME280;41452;42.780;23.116;2024-01-16T00:08:39;92881.94;;;2.89;100.00
55590;BME280;41452;42.780;23.116;2024-01-16T00:11:05;92886.47;;;2.94;100.00
55590;BME280;41452;42.780;23.116;2024-01-16T00:13:31;92889.84;;;2.94;100.00
55590;BME280;41452;42.780;23.116;2024-01-16T00:15:57;92891.09;;;2.92;100.00
55590;BME280;41452;42.780;23.116;2024-01-16T00:18:22;92895.16;;;2.99;100.00
55590;BME280;41452;42.780;23.116;2024-01-16T00:20:48;92905.03;;;3.09;100.00
55590;BME280;41452;42.780;23.116;2024-01-16T00:23:13;92902.56;;;3.14;100.00
55590;BME280;41452;42.780;23.116;2024-01-16T00:25:39;92913.97;;;3.13;100.00
55590;BME280;41452;42.780;23.116;2024-01-16T00:28:04;92915.78;;;3.13;100.00
55590;BME280;41452;42.780;23.116;2024-01-16T00:30:29;92915.13;;;2.99;100.00
55590;BME280;41452;42.780;23.116;2024-01-16T00:32:54;92917.06;;;3.03;100.00
55590;BME280;41452;42.780;23.116;2024-01-16T00:35:20;92906.91;;;3.02;100.00
55590;BME280;41452;42.780;23.116;2024-01-16T00:37:45;92919.50;;;2.98;100.00
55590;BME280;41452;42.780;23.116;2024-01-16T00:40:10;92919.88;;;3.02;100.00
55590;BME280;41452;42.780;23.116;2024-01-16T00:42:36;92919.44;;;3.05;100.00
55590;BME280;41452;42.780;23.116;2024-01-16T00:45:01;92912.44;;;3.05;100.00
55590;BME280;41452;42.780;23.116;2024-01-16T00:47:26;92907.25;;;3.05;100.00
55590;BME280;41452;42.780;23.116;2024-01-16T00:49:52;92915.63;;;3.08;100.00
55590;BME280;41452;42.780;23.116;2024-01-16T00:52:18;92923.19;;;3.09;100.00
55590;BME280;41452;42.780;23.116;2024-01-16T00:54:43;92914.97;;;3.12;100.00
55590;BME280;41452;42.780;23.116;2024-01-16T00:57:08;92916.34;;;3.15;100.00
55590;BME280;41452;42.780;23.116;2024-01-16T00:59:33;92916.91;;;3.17;100.00
55590;BME280;41452;42.780;23.116;2024-01-16T01:01:59;92924.47;;;3.18;100.00
55590;BME280;41452;42.780;23.116;2024-01-16T01:04:24;92922.53;;;3.14;100.00
55590;BME280;41452;42.780;23.116;2024-01-16T01:06:49;92906.59;;;3.10;100.00
55590;BME280;41452;42.780;23.116;2024-01-16T01:09:15;92899.97;;;3.14;100.00
55590;BME280;41452;42.780;23.116;2024-01-16T01:11:41;92889.81;;;3.13;100.00
55590;BME280;41452;42.780;23.116;2024-01-16T01:14:06;92876.50;;;3.09;100.00
55590;BME280;41452;42.780;23.116;2024-01-16T01:16:31;92887.53;;;3.04;100.00
55590;BME280;41452;42.780;23.116;2024-01-16T01:18:57;92893.50;;;3.05;100.00
55590;BME280;41452;42.780;23.116;2024-01-16T01:21:22;92883.81;;;3.00;100.00
55590;BME280;41452;42.780;23.116;2024-01-16T01:23:47;92885.94;;;3.03;100.00
55590;BME280;41452;42.780;23.116;2024-01-16T01:26:12;92896.31;;;3.03;100.00
55590;BME280;41452;42.780;23.116;2024-01-16T01:28:43;92889.97;;;2.99;100.00
55590;BME280;41452;42.780;23.116;2024-01-16T01:31:08;92901.13;;;3.00;100.00
55590;BME280;41452;42.780;23.116;2024-01-16T01:33:34;92892.94;;;3.03;100.00
55590;BME280;41452;42.780;23.116;2024-01-16T01:35:59;92893.56;;;2.98;100.00
55590;BME280;41452;42.780;23.116;2024-01-16T01:38:25;92897.97;;;2.98;100.00
55590;BME280;41452;42.780;23.116;2024-01-16T01:40:50;92903.72;;;3.00;100.00
55590;BME280;41452;42.780;23.116;2024-01-16T01:43:25;92900.34;;;2.99;100.00
55590;BME280;41452;42.780;23.116;2024-01-16T01:48:18;92902.81;;;2.94;100.00
55590;BME280;41452;42.780;23.116;2024-01-16T01:50:44;92907.78;;;2.96;100.00
55590;BME280;41452;42.780;23.116;2024-01-16T01:53:09;92903.59;;;2.95;100.00
55590;BME280;41452;42.780;23.116;2024-01-16T01:55:34;92904.63;;;2.94;100.00
55590;BME280;41452;42.780;23.116;2024-01-16T01:58:00;92907.66;;;2.91;100.00
55590;BME280;41452;42.780;23.116;2024-01-16T02:00:29;92905.75;;;2.98;100.00
55590;BME280;41452;42.780;23.116;2024-01-16T02:02:54;92908.78;;;2.95;100.00
55590;BME280;41452;42.780;23.116;2024-01-16T02:05:19;92905.34;;;3.01;100.00
55590;BME280;41452;42.780;23.116;2024-01-16T02:07:45;92909.84;;;3.05;100.00
55590;BME280;41452;42.780;23.116;2024-01-16T02:10:11;92921.25;;;3.04;100.00
55590;BME280;41452;42.780;23.116;2024-01-16T02:12:36;92926.56;;;3.10;100.00
55590;BME280;41452;42.780;23.116;2024-01-16T02:15:01;92932.13;;;3.13;100.00
55590;BME280;41452;42.780;23.116;2024-01-16T02:17:28;92938.97;;;3.08;100.00
55590;BME280;41452;42.780;23.116;2024-01-16T02:19:53;92956.47;;;3.12;100.00
55590;BME280;41452;42.780;23.116;2024-01-16T02:22:19;92963.75;;;3.03;100.00
55590;BME280;41452;42.780;23.116;2024-01-16T02:24:46;92968.72;;;3.05;100.00
55590;BME280;41452;42.780;23.116;2024-01-16T02:27:11;92987.53;;;3.19;100.00
55590;BME280;41452;42.780;23.116;2024-01-16T02:29:45;92999.03;;;3.23;100.00
55590;BME280;41452;42.780;23.116;2024-01-16T02:32:12;93007.09;;;3.33;100.00
55590;BME280;41452;42.780;23.116;2024-01-16T02:34:37;93013.31;;;3.32;100.00
55590;BME280;41452;42.780;23.116;2024-01-16T02:37:03;93026.59;;;3.24;100.00
55590;BME280;41452;42.780;23.116;2024-01-16T02:39:29;93031.06;;;3.17;100.00
55590;BME280;41452;42.780;23.116;2024-01-16T02:41:54;93052.03;;;3.15;100.00
55590;BME280;41452;42.780;23.116;2024-01-16T02:44:19;93061.03;;;3.13;100.00
55590;BME280;41452;42.780;23.116;2024-01-16T02:46:45;93071.25;;;3.08;100.00
55590;BME280;41452;42.780;23.116;2024-01-16T02:49:10;93084.06;;;3.02;100.00
55590;BME280;41452;42.780;23.116;2024-01-16T02:51:35;93087.44;;;2.84;100.00
55590;BME280;41452;42.780;23.116;2024-01-16T02:54:00;93089.66;;;2.81;100.00
55590;BME280;41452;42.780;23.116;2024-01-16T02:56:26;93102.38;;;2.82;100.00
55590;BME280;41452;42.780;23.116;2024-01-16T02:58:51;93105.84;;;2.76;100.00
55590;BME280;41452;42.780;23.116;2024-01-16T03:01:16;93120.81;;;2.74;100.00
55590;BME280;41452;42.780;23.116;2024-01-16T03:03:41;93131.25;;;2.67;100.00
55590;BME280;41452;42.780;23.116;2024-01-16T03:06:07;93127.31;;;2.58;100.00
55590;BME280;41452;42.780;23.116;2024-01-16T03:08:32;93135.72;;;2.54;100.00
55590;BME280;41452;42.780;23.116;2024-01-16T03:10:57;93132.34;;;2.53;100.00
55590;BME280;41452;42.780;23.116;2024-01-16T03:13:22;93141.41;;;2.37;100.00
55590;BME280;41452;42.780;23.116;2024-01-16T03:15:48;93158.84;;;2.17;100.00
55590;BME280;41452;42.780;23.116;2024-01-16T03:18:13;93161.25;;;2.18;100.00
55590;BME280;41452;42.780;23.116;2024-01-16T03:20:38;93172.81;;;2.16;100.00
55590;BME280;41452;42.780;23.116;2024-01-16T03:23:04;93178.19;;;2.21;100.00
55590;BME280;41452;42.780;23.116;2024-01-16T03:25:29;93179.47;;;2.05;100.00
55590;BME280;41452;42.780;23.116;2024-01-16T03:27:54;93189.03;;;1.98;100.00
55590;BME280;41452;42.780;23.116;2024-01-16T03:30:19;93187.66;;;1.95;100.00
55590;BME280;41452;42.780;23.116;2024-01-16T03:32:45;93192.81;;;2.02;100.00
55590;BME280;41452;42.780;23.116;2024-01-16T03:35:10;93199.78;;;2.01;100.00
55590;BME280;41452;42.780;23.116;2024-01-16T03:37:37;93201.03;;;1.85;100.00
55590;BME280;41452;42.780;23.116;2024-01-16T03:40:02;93198.91;;;1.69;100.00
55590;BME280;41452;42.780;23.116;2024-01-16T03:42:28;93210.66;;;1.65;100.00
55590;BME280;41452;42.780;23.116;2024-01-16T03:44:53;93215.41;;;1.68;100.00
55590;BME280;41452;42.780;23.116;2024-01-16T03:47:19;93222.97;;;1.76;100.00
55590;BME280;41452;42.780;23.116;2024-01-16T03:49:44;93230.97;;;1.61;100.00
55590;BME280;41452;42.780;23.116;2024-01-16T03:52:09;93235.59;;;1.46;100.00
55590;BME280;41452;42.780;23.116;2024-01-16T03:54:34;93243.75;;;1.43;100.00
55590;BME280;41452;42.780;23.116;2024-01-16T03:57:00;93243.34;;;1.39;100.00
55590;BME280;41452;42.780;23.116;2024-01-16T03:59:25;93251.88;;;1.40;100.00
55590;BME280;41452;42.780;23.116;2024-01-16T04:01:50;93254.47;;;1.40;100.00
55590;BME280;41452;42.780;23.116;2024-01-16T04:04:16;93253.50;;;1.41;100.00
55590;BME280;41452;42.780;23.116;2024-01-16T04:06:41;93264.03;;;1.32;100.00
55590;BME280;41452;42.780;23.116;2024-01-16T04:09:07;93260.63;;;1.45;100.00
55590;BME280;41452;42.780;23.116;2024-01-16T04:11:33;93278.56;;;1.47;100.00
55590;BME280;41452;42.780;23.116;2024-01-16T04:13:58;93269.41;;;1.44;100.00
55590;BME280;41452;42.780;23.116;2024-01-16T04:16:23;93288.31;;;1.51;100.00
55590;BME280;41452;42.780;23.116;2024-01-16T04:18:49;93291.09;;;1.43;100.00
55590;BME280;41452;42.780;23.116;2024-01-16T04:21:14;93283.94;;;1.39;100.00
55590;BME280;41452;42.780;23.116;2024-01-16T04:23:41;93294.28;;;1.32;100.00
55590;BME280;41452;42.780;23.116;2024-01-16T04:26:06;93286.72;;;1.37;100.00
55590;BME280;41452;42.780;23.116;2024-01-16T04:28:32;93292.69;;;1.44;100.00
55590;BME280;41452;42.780;23.116;2024-01-16T04:30:58;93302.63;;;1.47;100.00
55590;BME280;41452;42.780;23.116;2024-01-16T04:33:23;93316.16;;;1.29;100.00
55590;BME280;41452;42.780;23.116;2024-01-16T04:35:48;93322.53;;;1.27;100.00
55590;BME280;41452;42.780;23.116;2024-01-16T04:38:14;93324.13;;;1.21;100.00
55590;BME280;41452;42.780;23.116;2024-01-16T04:40:39;93340.06;;;1.25;100.00
55590;BME280;41452;42.780;23.116;2024-01-16T04:43:04;93342.22;;;1.28;100.00
55590;BME280;41452;42.780;23.116;2024-01-16T04:45:30;93354.34;;;1.07;100.00
55590;BME280;41452;42.780;23.116;2024-01-16T04:47:55;93360.50;;;1.06;100.00
55590;BME280;41452;42.780;23.116;2024-01-16T04:50:20;93364.69;;;1.07;100.00
55590;BME280;41452;42.780;23.116;2024-01-16T04:52:47;93379.78;;;0.97;100.00
55590;BME280;41452;42.780;23.116;2024-01-16T04:55:12;93388.72;;;0.94;100.00
55590;BME280;41452;42.780;23.116;2024-01-16T04:57:38;93390.31;;;1.02;100.00
55590;BME280;41452;42.780;23.116;2024-01-16T05:00:03;93391.53;;;1.00;100.00
55590;BME280;41452;42.780;23.116;2024-01-16T05:02:32;93396.06;;;0.91;100.00
55590;BME280;41452;42.780;23.116;2024-01-16T05:04:57;93402.25;;;0.97;100.00
55590;BME280;41452;42.780;23.116;2024-01-16T05:07:23;93406.41;;;0.91;100.00
55590;BME280;41452;42.780;23.116;2024-01-16T05:09:48;93418.94;;;0.94;100.00
55590;BME280;41452;42.780;23.116;2024-01-16T05:12:14;93420.69;;;0.87;100.00
55590;BME280;41452;42.780;23.116;2024-01-16T05:14:39;93437.41;;;0.84;100.00
55590;BME280;41452;42.780;23.116;2024-01-16T05:17:05;93439.78;;;0.86;100.00
55590;BME280;41452;42.780;23.116;2024-01-16T05:19:30;93450.69;;;0.81;100.00
55590;BME280;41452;42.780;23.116;2024-01-16T05:21:55;93455.22;;;0.72;100.00
55590;BME280;41452;42.780;23.116;2024-01-16T05:24:20;93457.44;;;0.75;100.00
55590;BME280;41452;42.780;23.116;2024-01-16T05:26:46;93452.47;;;0.74;100.00
55590;BME280;41452;42.780;23.116;2024-01-16T05:29:11;93461.19;;;0.66;100.00
55590;BME280;41452;42.780;23.116;2024-01-16T05:31:43;93471.28;;;0.61;100.00
55590;BME280;41452;42.780;23.116;2024-01-16T05:34:08;93459.75;;;0.64;100.00
55590;BME280;41452;42.780;23.116;2024-01-16T05:36:34;93462.38;;;0.70;100.00
55590;BME280;41452;42.780;23.116;2024-01-16T05:38:59;93471.00;;;0.84;100.00
55590;BME280;41452;42.780;23.116;2024-01-16T05:41:24;93485.50;;;0.79;100.00
55590;BME280;41452;42.780;23.116;2024-01-16T05:43:49;93488.44;;;0.75;100.00
55590;BME280;41452;42.780;23.116;2024-01-16T05:46:15;93490.03;;;0.70;100.00
55590;BME280;41452;42.780;23.116;2024-01-16T05:48:40;93493.75;;;0.67;100.00
55590;BME280;41452;42.780;23.116;2024-01-16T05:51:05;93519.00;;;0.65;100.00
55590;BME280;41452;42.780;23.116;2024-01-16T05:53:30;93510.28;;;0.66;100.00
55590;BME280;41452;42.780;23.116;2024-01-16T05:55:56;93520.25;;;0.69;100.00
55590;BME280;41452;42.780;23.116;2024-01-16T05:58:21;93520.38;;;0.61;100.00
55590;BME280;41452;42.780;23.116;2024-01-16T06:00:47;93522.72;;;0.56;100.00
55590;BME280;41452;42.780;23.116;2024-01-16T06:03:12;93527.34;;;0.67;100.00
55590;BME280;41452;42.780;23.116;2024-01-16T06:05:37;93521.50;;;0.52;100.00
55590;BME280;41452;42.780;23.116;2024-01-16T06:08:03;93535.88;;;0.61;100.00
55590;BME280;41452;42.780;23.116;2024-01-16T06:10:28;93559.00;;;0.69;100.00
55590;BME280;41452;42.780;23.116;2024-01-16T06:12:53;93574.72;;;0.74;100.00
55590;BME280;41452;42.780;23.116;2024-01-16T06:15:18;93578.00;;;0.62;100.00
55590;BME280;41452;42.780;23.116;2024-01-16T06:17:44;93586.34;;;0.57;100.00
55590;BME280;41452;42.780;23.116;2024-01-16T06:20:09;93595.84;;;0.50;100.00
55590;BME280;41452;42.780;23.116;2024-01-16T06:22:35;93605.03;;;0.59;100.00
55590;BME280;41452;42.780;23.116;2024-01-16T06:25:00;93610.28;;;0.66;100.00
55590;BME280;41452;42.780;23.116;2024-01-16T06:27:27;93603.72;;;0.70;100.00
55590;BME280;41452;42.780;23.116;2024-01-16T06:29:52;93611.66;;;0.68;100.00
55590;BME280;41452;42.780;23.116;2024-01-16T06:32:17;93615.44;;;0.66;100.00
55590;BME280;41452;42.780;23.116;2024-01-16T06:34:43;93626.56;;;0.66;100.00
55590;BME280;41452;42.780;23.116;2024-01-16T06:37:08;93633.66;;;0.57;100.00
55590;BME280;41452;42.780;23.116;2024-01-16T06:39:33;93637.03;;;0.58;100.00
55590;BME280;41452;42.780;23.116;2024-01-16T06:41:59;93633.31;;;0.67;100.00
55590;BME280;41452;42.780;23.116;2024-01-16T06:44:24;93638.47;;;0.67;100.00
55590;BME280;41452;42.780;23.116;2024-01-16T06:46:49;93643.28;;;0.70;100.00
55590;BME280;41452;42.780;23.116;2024-01-16T06:49:15;93650.56;;;0.60;100.00
55590;BME280;41452;42.780;23.116;2024-01-16T06:51:40;93653.72;;;0.55;100.00
55590;BME280;41452;42.780;23.116;2024-01-16T06:54:05;93652.06;;;0.76;100.00
55590;BME280;41452;42.780;23.116;2024-01-16T06:56:31;93650.31;;;0.77;100.00
55590;BME280;41452;42.780;23.116;2024-01-16T06:58:56;93664.31;;;0.67;100.00
55590;BME280;41452;42.780;23.116;2024-01-16T07:01:21;93671.72;;;0.70;100.00
55590;BME280;41452;42.780;23.116;2024-01-16T07:03:46;93676.88;;;0.70;100.00
55590;BME280;41452;42.780;23.116;2024-01-16T07:06:12;93676.56;;;0.59;100.00
55590;BME280;41452;42.780;23.116;2024-01-16T07:08:37;93687.34;;;0.62;100.00
55590;BME280;41452;42.780;23.116;2024-01-16T07:11:03;93703.91;;;0.46;100.00
55590;BME280;41452;42.780;23.116;2024-01-16T07:13:32;93703.91;;;0.46;100.00
55590;BME280;41452;42.780;23.116;2024-01-16T07:15:58;93717.88;;;0.52;100.00
55590;BME280;41452;42.780;23.116;2024-01-16T07:18:23;93723.84;;;0.52;100.00
55590;BME280;41452;42.780;23.116;2024-01-16T07:20:48;93724.75;;;0.45;100.00
55590;BME280;41452;42.780;23.116;2024-01-16T07:23:13;93729.94;;;0.45;100.00
55590;BME280;41452;42.780;23.116;2024-01-16T07:25:39;93743.91;;;0.35;100.00
55590;BME280;41452;42.780;23.116;2024-01-16T07:28:05;93757.97;;;0.48;100.00
55590;BME280;41452;42.780;23.116;2024-01-16T07:30:30;93765.34;;;0.51;100.00
55590;BME280;41452;42.780;23.116;2024-01-16T07:32:55;93773.91;;;0.51;100.00
55590;BME280;41452;42.780;23.116;2024-01-16T07:35:20;93772.81;;;0.61;100.00
55590;BME280;41452;42.780;23.116;2024-01-16T07:37:45;93772.69;;;0.69;100.00
55590;BME280;41452;42.780;23.116;2024-01-16T07:40:11;93784.22;;;0.66;100.00
55590;BME280;41452;42.780;23.116;2024-01-16T07:42:37;93785.66;;;0.54;100.00
55590;BME280;41452;42.780;23.116;2024-01-16T07:45:05;93793.78;;;0.51;100.00
55590;BME280;41452;42.780;23.116;2024-01-16T07:47:31;93785.75;;;0.46;100.00
55590;BME280;41452;42.780;23.116;2024-01-16T07:49:57;93793.78;;;0.51;100.00
55590;BME280;41452;42.780;23.116;2024-01-16T07:52:22;93789.34;;;0.45;100.00
55590;BME280;41452;42.780;23.116;2024-01-16T07:54:48;93799.28;;;0.48;100.00
55590;BME280;41452;42.780;23.116;2024-01-16T07:57:13;93801.25;;;0.46;100.00
55590;BME280;41452;42.780;23.116;2024-01-16T07:59:38;93819.34;;;0.46;100.00
55590;BME280;41452;42.780;23.116;2024-01-16T08:02:05;93820.09;;;0.40;100.00
55590;BME280;41452;42.780;23.116;2024-01-16T08:04:31;93826.41;;;0.37;100.00
55590;BME280;41452;42.780;23.116;2024-01-16T08:06:56;93824.09;;;0.27;100.00
55590;BME280;41452;42.780;23.116;2024-01-16T08:09:21;93834.09;;;0.30;100.00
55590;BME280;41452;42.780;23.116;2024-01-16T08:11:46;93833.81;;;0.25;100.00
55590;BME280;41452;42.780;23.116;2024-01-16T08:14:12;93840.84;;;0.31;100.00
55590;BME280;41452;42.780;23.116;2024-01-16T08:16:38;93849.59;;;0.30;100.00
55590;BME280;41452;42.780;23.116;2024-01-16T08:19:03;93863.72;;;0.34;100.00
55590;BME280;41452;42.780;23.116;2024-01-16T08:21:29;93870.25;;;0.30;100.00
55590;BME280;41452;42.780;23.116;2024-01-16T08:23:54;93873.44;;;0.32;100.00
55590;BME280;41452;42.780;23.116;2024-01-16T08:26:19;93863.91;;;0.33;100.00
55590;BME280;41452;42.780;23.116;2024-01-16T08:28:45;93869.53;;;0.22;100.00
55590;BME280;41452;42.780;23.116;2024-01-16T08:31:10;93874.25;;;0.18;100.00
55590;BME280;41452;42.780;23.116;2024-01-16T08:33:36;93881.56;;;0.14;100.00
55590;BME280;41452;42.780;23.116;2024-01-16T08:36:05;93884.59;;;0.18;100.00
55590;BME280;41452;42.780;23.116;2024-01-16T08:38:30;93893.41;;;0.24;100.00
55590;BME280;41452;42.780;23.116;2024-01-16T08:40:55;93904.06;;;0.35;100.00
55590;BME280;41452;42.780;23.116;2024-01-16T08:43:20;93911.56;;;0.30;100.00
55590;BME280;41452;42.780;23.116;2024-01-16T08:45:46;93916.19;;;0.20;100.00
55590;BME280;41452;42.780;23.116;2024-01-16T08:48:12;93922.66;;;0.16;100.00
55590;BME280;41452;42.780;23.116;2024-01-16T08:50:39;93920.47;;;0.13;100.00
55590;BME280;41452;42.780;23.116;2024-01-16T08:53:05;93924.00;;;0.12;100.00
55590;BME280;41452;42.780;23.116;2024-01-16T08:55:31;93922.78;;;0.23;100.00
55590;BME280;41452;42.780;23.116;2024-01-16T08:57:56;93925.25;;;0.16;100.00
55590;BME280;41452;42.780;23.116;2024-01-16T09:00:22;93925.81;;;0.26;100.00
55590;BME280;41452;42.780;23.116;2024-01-16T09:02:47;93934.09;;;0.22;100.00
55590;BME280;41452;42.780;23.116;2024-01-16T09:05:13;93940.06;;;0.22;100.00
55590;BME280;41452;42.780;23.116;2024-01-16T09:07:39;93939.88;;;0.24;100.00
55590;BME280;41452;42.780;23.116;2024-01-16T09:10:05;93946.63;;;0.25;100.00
55590;BME280;41452;42.780;23.116;2024-01-16T09:12:30;93948.97;;;0.34;100.00
55590;BME280;41452;42.780;23.116;2024-01-16T09:14:55;93942.56;;;0.30;100.00
55590;BME280;41452;42.780;23.116;2024-01-16T09:17:21;93940.34;;;0.42;100.00
55590;BME280;41452;42.780;23.116;2024-01-16T09:19:46;93953.81;;;0.37;100.00
55590;BME280;41452;42.780;23.116;2024-01-16T09:22:11;93952.97;;;0.37;100.00
55590;BME280;41452;42.780;23.116;2024-01-16T09:24:37;93953.69;;;0.31;100.00
55590;BME280;41452;42.780;23.116;2024-01-16T09:27:02;93940.44;;;0.34;100.00
55590;BME280;41452;42.780;23.116;2024-01-16T09:29:31;93937.56;;;0.29;100.00
55590;BME280;41452;42.780;23.116;2024-01-16T09:31:56;93940.34;;;0.27;100.00
55590;BME280;41452;42.780;23.116;2024-01-16T09:34:21;93941.41;;;0.18;100.00
55590;BME280;41452;42.780;23.116;2024-01-16T09:36:47;93955.84;;;0.27;100.00
55590;BME280;41452;42.780;23.116;2024-01-16T09:39:12;93953.06;;;0.29;100.00
55590;BME280;41452;42.780;23.116;2024-01-16T09:41:38;93950.38;;;0.37;100.00
55590;BME280;41452;42.780;23.116;2024-01-16T09:44:04;93950.22;;;0.38;100.00
55590;BME280;41452;42.780;23.116;2024-01-16T09:46:30;93960.59;;;0.53;100.00
55590;BME280;41452;42.780;23.116;2024-01-16T09:48:56;93953.34;;;0.49;100.00
55590;BME280;41452;42.780;23.116;2024-01-16T09:51:22;93944.53;;;0.58;100.00
55590;BME280;41452;42.780;23.116;2024-01-16T09:53:47;93955.94;;;0.64;100.00
55590;BME280;41452;42.780;23.116;2024-01-16T09:56:14;93956.81;;;0.56;100.00
55590;BME280;41452;42.780;23.116;2024-01-16T09:58:40;93955.41;;;0.68;100.00
55590;BME280;41452;42.780;23.116;2024-01-16T10:01:05;93959.03;;;0.74;100.00
55590;BME280;41452;42.780;23.116;2024-01-16T10:03:31;93961.75;;;0.66;100.00
55590;BME280;41452;42.780;23.116;2024-01-16T10:05:56;93958.34;;;0.65;100.00
55590;BME280;41452;42.780;23.116;2024-01-16T10:08:24;93954.78;;;0.66;100.00
55590;BME280;41452;42.780;23.116;2024-01-16T10:10:50;93956.38;;;0.67;100.00
55590;BME280;41452;42.780;23.116;2024-01-16T10:13:15;93950.22;;;0.68;100.00
55590;BME280;41452;42.780;23.116;2024-01-16T10:15:41;93945.59;;;0.79;100.00
55590;BME280;41452;42.780;23.116;2024-01-16T10:18:19;93955.03;;;0.86;100.00
55590;BME280;41452;42.780;23.116;2024-01-16T10:20:46;93958.69;;;0.92;100.00
55590;BME280;41452;42.780;23.116;2024-01-16T10:23:11;93963.31;;;0.97;100.00
55590;BME280;41452;42.780;23.116;2024-01-16T10:25:46;93962.53;;;0.96;100.00
55590;BME280;41452;42.780;23.116;2024-01-16T10:28:29;93957.78;;;1.00;100.00
55590;BME280;41452;42.780;23.116;2024-01-16T10:31:01;93966.63;;;1.05;100.00
55590;BME280;41452;42.780;23.116;2024-01-16T10:33:26;93964.03;;;1.05;100.00
55590;BME280;41452;42.780;23.116;2024-01-16T10:35:55;93966.22;;;1.08;100.00
55590;BME280;41452;42.780;23.116;2024-01-16T10:38:32;93958.28;;;1.10;100.00
55590;BME280;41452;42.780;23.116;2024-01-16T10:41:04;93962.75;;;1.01;100.00
55590;BME280;41452;42.780;23.116;2024-01-16T10:43:31;93949.03;;;1.01;100.00
55590;BME280;41452;42.780;23.116;2024-01-16T10:46:06;93945.47;;;1.02;100.00
55590;BME280;41452;42.780;23.116;2024-01-16T10:48:31;93965.25;;;1.09;100.00
55590;BME280;41452;42.780;23.116;2024-01-16T10:50:56;93960.53;;;1.13;100.00
55590;BME280;41452;42.780;23.116;2024-01-16T10:53:22;93958.38;;;1.17;100.00
55590;BME280;41452;42.780;23.116;2024-01-16T10:55:51;93963.63;;;1.23;100.00
55590;BME280;41452;42.780;23.116;2024-01-16T10:58:17;93968.72;;;1.17;100.00
55590;BME280;41452;42.780;23.116;2024-01-16T11:00:44;93966.75;;;1.19;100.00
55590;BME280;41452;42.780;23.116;2024-01-16T11:03:16;93973.19;;;1.23;100.00
55590;BME280;41452;42.780;23.116;2024-01-16T11:05:43;93976.56;;;1.08;100.00
55590;BME280;41452;42.780;23.116;2024-01-16T11:08:09;93976.22;;;1.11;100.00
55590;BME280;41452;42.780;23.116;2024-01-16T11:10:36;93977.09;;;1.19;100.00
55590;BME280;41452;42.780;23.116;2024-01-16T11:13:02;93971.56;;;1.22;100.00
55590;BME280;41452;42.780;23.116;2024-01-16T11:15:29;93977.72;;;1.21;100.00
55590;BME280;41452;42.780;23.116;2024-01-16T11:17:56;93978.63;;;1.13;100.00
55590;BME280;41452;42.780;23.116;2024-01-16T11:20:22;93973.28;;;1.14;100.00
55590;BME280;41452;42.780;23.116;2024-01-16T11:22:48;93972.09;;;1.17;100.00
55590;BME280;41452;42.780;23.116;2024-01-16T11:25:14;93982.72;;;1.22;100.00
55590;BME280;41452;42.780;23.116;2024-01-16T11:27:41;93984.06;;;1.18;100.00
55590;BME280;41452;42.780;23.116;2024-01-16T11:30:10;93993.97;;;1.14;100.00
55590;BME280;41452;42.780;23.116;2024-01-16T11:32:38;94004.31;;;1.14;100.00
55590;BME280;41452;42.780;23.116;2024-01-16T11:35:05;93994.31;;;1.26;100.00
55590;BME280;41452;42.780;23.116;2024-01-16T11:37:31;94008.06;;;1.27;100.00
55590;BME280;41452;42.780;23.116;2024-01-16T11:42:41;94004.94;;;1.31;100.00
55590;BME280;41452;42.780;23.116;2024-01-16T11:45:08;94000.44;;;1.40;100.00
55590;BME280;41452;42.780;23.116;2024-01-16T11:47:33;93997.22;;;1.38;100.00
55590;BME280;41452;42.780;23.116;2024-01-16T11:50:11;93992.66;;;1.40;100.00
55590;BME280;41452;42.780;23.116;2024-01-16T11:57:57;94024.38;;;1.27;100.00
55590;BME280;41452;42.780;23.116;2024-01-16T12:00:25;94019.44;;;1.32;100.00
55590;BME280;41452;42.780;23.116;2024-01-16T12:02:55;94025.25;;;1.35;99.62
55590;BME280;41452;42.780;23.116;2024-01-16T12:05:20;94028.56;;;1.28;100.00
55590;BME280;41452;42.780;23.116;2024-01-16T12:07:46;94033.00;;;1.35;100.00
55590;BME280;41452;42.780;23.116;2024-01-16T12:10:14;94028.88;;;1.40;99.61
55590;BME280;41452;42.780;23.116;2024-01-16T12:12:39;94022.91;;;1.55;99.57
55590;BME280;41452;42.780;23.116;2024-01-16T12:15:05;94020.31;;;1.55;98.84
55590;BME280;41452;42.780;23.116;2024-01-16T12:17:31;94020.84;;;1.50;97.86
55590;BME280;41452;42.780;23.116;2024-01-16T12:19:57;94026.03;;;1.50;100.00
55590;BME280;41452;42.780;23.116;2024-01-16T12:22:22;94020.31;;;1.55;100.00
55590;BME280;41452;42.780;23.116;2024-01-16T12:24:48;94021.53;;;1.59;99.70
55590;BME280;41452;42.780;23.116;2024-01-16T12:27:13;94020.63;;;1.66;99.39
55590;BME280;41452;42.780;23.116;2024-01-16T12:29:39;94027.34;;;1.61;99.87
55590;BME280;41452;42.780;23.116;2024-01-16T12:32:10;94036.84;;;1.75;100.00
55590;BME280;41452;42.780;23.116;2024-01-16T12:34:46;94044.63;;;1.75;100.00
55590;BME280;41452;42.780;23.116;2024-01-16T12:37:11;94024.88;;;1.74;99.92
55590;BME280;41452;42.780;23.116;2024-01-16T12:39:37;94026.59;;;1.67;100.00
55590;BME280;41452;42.780;23.116;2024-01-16T12:42:03;94036.50;;;1.63;98.90
55590;BME280;41452;42.780;23.116;2024-01-16T12:44:29;94032.53;;;1.61;98.95
55590;BME280;41452;42.780;23.116;2024-01-16T12:46:54;94032.53;;;1.61;99.75
55590;BME280;41452;42.780;23.116;2024-01-16T12:49:21;94028.97;;;1.62;99.82
55590;BME280;41452;42.780;23.116;2024-01-16T12:51:47;94029.00;;;1.68;100.00
55590;BME280;41452;42.780;23.116;2024-01-16T12:54:16;94039.31;;;1.62;99.75